createdAt,value
2019-05-25T00:04:55.244Z,13.97
2019-05-25T00:10:02.694Z,14.01
2019-05-25T00:15:10.521Z,13.95
2019-05-25T00:20:18.057Z,13.91
2019-05-25T00:25:25.423Z,14.11
2019-05-25T00:30:32.868Z,14.20
2019-05-25T00:35:40.280Z,14.26
2019-05-25T00:40:47.702Z,14.28
2019-05-25T00:45:55.111Z,14.11
2019-05-25T00:51:02.580Z,14.13
2019-05-25T00:56:09.960Z,13.87
2019-05-25T01:01:17.347Z,13.56
2019-05-25T01:06:24.685Z,13.76
2019-05-25T01:11:31.977Z,13.59
2019-05-25T01:16:39.369Z,13.49
2019-05-25T01:21:46.781Z,13.44
2019-05-25T01:26:54.162Z,13.38
2019-05-25T01:32:01.562Z,13.61
2019-05-25T01:37:08.842Z,13.28
2019-05-25T01:42:16.314Z,13.08
2019-05-25T01:47:23.653Z,13.08
2019-05-25T01:52:31.108Z,13.11
2019-05-25T01:57:38.467Z,13.12
2019-05-25T02:02:45.828Z,12.83
2019-05-25T02:07:53.169Z,12.52
2019-05-25T02:13:00.663Z,12.83
2019-05-25T02:18:08.006Z,12.93
2019-05-25T02:23:15.317Z,12.62
2019-05-25T02:28:22.669Z,12.39
2019-05-25T02:33:30.160Z,12.61
2019-05-25T02:38:37.649Z,12.30
2019-05-25T02:43:45.648Z,12.34
2019-05-25T02:48:53.206Z,12.17
2019-05-25T02:54:00.659Z,11.97
2019-05-25T02:59:07.973Z,12.29
2019-05-25T03:04:15.415Z,12.20
2019-05-25T03:09:24.316Z,11.96
2019-05-25T03:14:31.674Z,12.23
2019-05-25T03:19:39.082Z,12.08
2019-05-25T03:24:46.492Z,12.02
2019-05-25T03:29:53.832Z,12.19
2019-05-25T03:35:01.281Z,12.19
2019-05-25T03:40:09.387Z,12.11
2019-05-25T03:45:18.079Z,12.14
2019-05-25T03:50:25.573Z,11.93
2019-05-25T03:55:33.070Z,12.02
2019-05-25T04:00:41.141Z,12.28
2019-05-25T04:05:48.602Z,12.33
2019-05-25T04:10:55.997Z,12.31
2019-05-25T04:16:03.376Z,12.26
2019-05-25T04:21:13.158Z,12.52
2019-05-25T04:26:22.907Z,12.69
2019-05-25T04:31:29.631Z,12.81
2019-05-25T04:36:37.096Z,12.94
2019-05-25T04:41:44.436Z,12.99
2019-05-25T04:46:51.826Z,13.11
2019-05-25T04:51:59.179Z,13.25
2019-05-25T04:57:06.653Z,13.29
2019-05-25T05:02:14.113Z,13.37
2019-05-25T05:07:21.427Z,13.54
2019-05-25T05:12:28.825Z,13.65
2019-05-25T05:17:38.286Z,13.74
2019-05-25T05:22:45.640Z,13.82
2019-05-25T05:27:53.017Z,13.88
2019-05-25T05:33:00.475Z,13.93
2019-05-25T05:38:08.242Z,14.08
2019-05-25T05:43:17.081Z,14.21
2019-05-25T05:48:28.592Z,14.38
2019-05-25T05:53:40.381Z,14.57
2019-05-25T05:58:47.711Z,14.62
2019-05-25T06:03:55.162Z,14.70
2019-05-25T06:09:02.541Z,14.88
2019-05-25T06:14:10.019Z,15.18
2019-05-25T06:19:17.584Z,15.35
2019-05-25T06:24:25.208Z,15.65
2019-05-25T06:29:32.745Z,15.88
2019-05-25T06:34:40.402Z,15.98
2019-05-25T06:39:47.817Z,16.00
2019-05-25T06:44:55.285Z,15.95
2019-05-25T06:50:03.621Z,16.09
2019-05-25T06:55:12.081Z,16.07
2019-05-25T07:00:58.439Z,16.21
2019-05-25T07:06:06.929Z,16.33
2019-05-25T07:11:14.352Z,16.53
2019-05-25T07:16:21.708Z,16.76
2019-05-25T07:21:29.119Z,16.86
2019-05-25T07:26:36.595Z,16.90
2019-05-25T07:31:44.016Z,17.31
2019-05-25T07:36:51.457Z,17.49
2019-05-25T07:41:58.861Z,17.55
2019-05-25T07:47:06.173Z,17.44
2019-05-25T07:52:13.726Z,17.31
2019-05-25T07:57:21.140Z,17.26
2019-05-25T08:02:28.727Z,17.55
2019-05-25T08:07:36.091Z,17.71
2019-05-25T08:12:43.321Z,17.85
2019-05-25T08:17:50.770Z,17.98
2019-05-25T08:22:58.216Z,18.16
2019-05-25T08:28:05.577Z,18.34
2019-05-25T08:33:13.035Z,18.58
2019-05-25T08:38:30.137Z,18.94
2019-05-25T08:43:37.552Z,19.11
2019-05-25T08:48:44.927Z,18.93
2019-05-25T08:53:52.472Z,18.79
2019-05-25T08:59:00.050Z,18.77
2019-05-25T09:04:07.487Z,18.75
2019-05-25T09:09:14.972Z,18.91
2019-05-25T09:14:22.349Z,19.09
2019-05-25T09:19:29.795Z,19.36
2019-05-25T09:24:37.211Z,19.49
2019-05-25T09:29:44.639Z,19.72
2019-05-25T09:34:52.027Z,19.99
2019-05-25T09:39:59.500Z,20.18
2019-05-25T09:45:09.224Z,20.44
2019-05-25T09:50:16.771Z,20.50
2019-05-25T09:55:24.229Z,20.61
2019-05-25T10:00:32.190Z,20.55
2019-05-25T10:05:39.632Z,20.59
2019-05-25T10:10:47.081Z,20.79
2019-05-25T10:15:54.413Z,21.18
2019-05-25T10:21:01.840Z,21.80
2019-05-25T10:26:09.177Z,21.98
2019-05-25T10:31:16.614Z,21.97
2019-05-25T10:36:23.957Z,21.87
2019-05-25T10:41:31.440Z,21.77
2019-05-25T10:46:38.860Z,21.57
2019-05-25T10:51:46.254Z,21.57
2019-05-25T10:56:53.677Z,21.54
2019-05-25T11:02:01.017Z,21.70
2019-05-25T11:07:08.526Z,21.65
2019-05-25T11:12:15.881Z,21.83
2019-05-25T11:17:23.323Z,22.28
2019-05-25T11:22:30.834Z,22.29
2019-05-25T11:27:38.332Z,22.28
2019-05-25T11:32:45.821Z,22.41
2019-05-25T11:37:53.248Z,23.04
2019-05-25T11:43:00.683Z,23.47
2019-05-25T11:48:08.189Z,23.97
2019-05-25T11:53:15.743Z,23.96
2019-05-25T11:58:23.205Z,24.30
2019-05-25T12:03:30.597Z,24.61
2019-05-25T12:08:38.083Z,24.00
2019-05-25T12:13:45.575Z,23.23
2019-05-25T12:18:53.177Z,22.99
2019-05-25T12:24:00.608Z,23.51
2019-05-25T12:29:08.012Z,24.20
2019-05-25T12:34:15.925Z,25.27
2019-05-25T12:39:26.489Z,25.80
2019-05-25T12:44:34.364Z,26.08
2019-05-25T12:49:50.682Z,25.70
2019-05-25T12:54:51.462Z,25.26
2019-05-25T13:00:14.110Z,25.68
2019-05-25T13:05:08.725Z,25.65
2019-05-25T13:10:16.554Z,25.50
2019-05-25T13:15:24.032Z,26.12
2019-05-25T13:20:31.358Z,26.49
2019-05-25T13:25:38.759Z,27.02
2019-05-25T13:30:46.196Z,26.78
2019-05-25T13:35:53.634Z,26.85
2019-05-25T13:41:02.023Z,26.15
2019-05-25T13:46:09.389Z,25.61
2019-05-25T13:51:16.898Z,26.09
2019-05-25T13:56:24.395Z,26.32
2019-05-25T14:01:56.589Z,26.68
2019-05-25T14:07:04.429Z,26.21
2019-05-25T14:12:11.877Z,25.43
2019-05-25T14:17:19.855Z,25.73
2019-05-25T14:22:27.653Z,25.87
2019-05-25T14:27:35.021Z,24.98
2019-05-25T14:32:42.766Z,24.19
2019-05-25T14:43:35.607Z,24.41
2019-05-25T14:48:46.632Z,25.94
2019-05-25T14:53:54.464Z,27.49
2019-05-25T14:59:02.288Z,28.24
2019-05-25T15:04:09.798Z,27.62
2019-05-25T15:09:17.565Z,26.82
2019-05-25T15:14:25.065Z,27.13
2019-05-25T15:19:32.516Z,26.13
2019-05-25T15:24:42.514Z,25.22
2019-05-25T15:29:50.286Z,24.70
2019-05-25T15:35:20.680Z,24.41
2019-05-25T15:40:29.678Z,24.61
2019-05-25T15:45:38.409Z,24.59
2019-05-25T15:51:14.792Z,24.86
2019-05-25T15:56:22.260Z,24.82
2019-05-25T16:01:30.034Z,24.06
2019-05-25T16:07:29.536Z,23.58
2019-05-25T16:18:32.235Z,23.10
2019-05-25T16:23:40.018Z,23.04
2019-05-25T16:28:53.305Z,22.87
2019-05-25T16:34:18.433Z,22.59
2019-05-25T16:45:49.408Z,22.00
2019-05-25T16:57:11.236Z,21.49
2019-05-25T17:08:24.698Z,21.23
2019-05-25T17:13:33.737Z,21.25
2019-05-25T17:19:02.323Z,21.09
2019-05-25T17:24:17.768Z,20.95
2019-05-25T17:29:38.353Z,20.84
2019-05-25T17:35:04.341Z,20.76
2019-05-25T17:40:41.895Z,20.74
2019-05-25T17:46:19.250Z,20.45
2019-05-25T17:57:49.559Z,20.45
2019-05-25T18:02:54.362Z,20.28
2019-05-25T18:08:12.319Z,19.67
2019-05-25T18:13:29.074Z,19.49
2019-05-25T18:18:35.975Z,19.19
2019-05-25T18:24:10.526Z,18.89
2019-05-25T18:29:36.192Z,18.59
2019-05-25T18:34:50.125Z,18.38
2019-05-25T18:40:10.138Z,18.16
2019-05-25T18:51:19.028Z,17.74
2019-05-25T18:57:10.183Z,17.67
2019-05-25T19:13:50.112Z,17.18
2019-05-25T19:19:16.445Z,16.89
2019-05-25T19:24:43.042Z,16.72
2019-05-25T19:30:12.818Z,16.68
2019-05-25T19:35:39.649Z,16.52
2019-05-25T19:46:27.772Z,16.22
2019-05-25T19:57:27.366Z,15.98
2019-05-25T20:02:34.903Z,15.77
2019-05-25T20:07:42.380Z,15.50
2019-05-25T20:12:49.888Z,15.37
2019-05-25T20:17:57.434Z,15.13
2019-05-25T20:23:04.872Z,14.97
2019-05-25T20:28:12.450Z,15.12
2019-05-25T20:33:27.441Z,15.51
2019-05-25T20:38:29.080Z,14.90
2019-05-25T20:43:36.507Z,14.65
2019-05-25T20:48:44.107Z,15.03
2019-05-25T20:53:51.771Z,15.23
2019-05-25T20:58:59.191Z,15.08
2019-05-25T21:04:06.700Z,15.20
2019-05-25T21:09:14.184Z,15.08
2019-05-25T21:14:21.631Z,14.73
2019-05-25T21:19:30.050Z,14.68
2019-05-25T21:24:37.455Z,14.08
2019-05-25T21:29:44.927Z,14.09
2019-05-25T21:34:52.417Z,13.92
2019-05-25T21:39:59.837Z,14.29
2019-05-25T21:45:08.443Z,14.37
2019-05-25T21:50:16.239Z,14.04
2019-05-25T21:55:23.669Z,13.91
2019-05-25T22:00:32.738Z,13.70
2019-05-25T22:05:41.208Z,13.60
2019-05-25T22:10:48.672Z,13.26
2019-05-25T22:15:56.115Z,13.45
2019-05-25T22:21:03.579Z,13.51
2019-05-25T22:26:10.987Z,13.68
2019-05-25T22:31:18.396Z,13.59
2019-05-25T22:36:39.181Z,13.31
2019-05-25T22:41:34.908Z,13.72
2019-05-25T22:46:42.340Z,13.50
2019-05-25T22:51:49.824Z,13.22
2019-05-25T22:56:57.229Z,13.62
2019-05-25T23:02:04.745Z,13.82
2019-05-25T23:07:12.155Z,13.67
2019-05-25T23:12:19.540Z,13.37
2019-05-25T23:17:26.854Z,13.37
2019-05-25T23:22:34.246Z,13.54
2019-05-25T23:27:41.663Z,13.57
2019-05-25T23:32:49.059Z,13.43
2019-05-25T23:37:56.420Z,13.01
2019-05-25T23:43:03.850Z,12.62
2019-05-25T23:48:11.293Z,12.94
2019-05-25T23:53:18.763Z,13.06
2019-05-25T23:58:26.108Z,13.12
